Time;durP1;ratioP1;P1;durP2;ratioP2;P2;SDS_P1;SDS_P2;PMS_P1;PMS_P2;Temp;Humidity;BMP_temperature;BMP_pressure;BME280_temperature;BME280_humidity;BME280_pressure;Samples;Min_cycle;Max_cycle;Signal;HPM_P1;HPM_P2
2023/11/20 00:00:12;;;;;;;7.60;1.30;;;;;;;;;;5031494;28;20572;-85
2023/11/20 00:03:16;;;;;;;3.40;1.27;;;;;;;;;;5042515;28;20176;-85
2023/11/20 00:06:20;;;;;;;2.83;1.10;;;;;;;;;;5042980;28;20180;-84
2023/11/20 00:09:24;;;;;;;4.83;1.23;;;;;;;;;;5042887;28;20184;-85
2023/11/20 00:12:29;;;;;;;7.97;1.40;;;;;;;;;;5030990;28;20565;-85
2023/11/20 00:15:34;;;;;;;1.43;0.90;;;;;;;;;;5042638;28;20180;-85
2023/11/20 00:18:39;;;;;;;4.13;1.47;;;;;;;;;;5042431;28;20576;-85
2023/11/20 00:21:43;;;;;;;4.10;1.30;;;;;;;;;;5042407;28;20212;-85
2023/11/20 00:24:47;;;;;;;5.10;1.77;;;;;;;;;;5030825;28;20180;-85
2023/11/20 00:27:51;;;;;;;2.63;1.20;;;;;;;;;;5031142;28;20184;-85
2023/11/20 00:30:55;;;;;;;2.93;1.33;;;;;;;;;;5031094;28;20219;-85
2023/11/20 00:33:59;;;;;;;3.93;1.30;;;;;;;;;;5042104;28;20184;-85
2023/11/20 00:37:03;;;;;;;3.00;1.50;;;;;;;;;;5030940;28;20184;-85
2023/11/20 00:40:11;;;;;;;5.63;1.60;;;;;;;;;;5053967;28;20632;-85
2023/11/20 00:43:16;;;;;;;4.37;1.67;;;;;;;;;;5019833;28;20180;-86
2023/11/20 00:46:20;;;;;;;5.73;1.73;;;;;;;;;;5019411;28;20184;-85
2023/11/20 00:49:25;;;;;;;2.80;1.60;;;;;;;;;;5019799;28;20176;-85
2023/11/20 00:52:34;;;;;;;5.43;1.60;;;;;;;;;;5030531;28;20211;-85
2023/11/20 00:55:38;;;;;;;4.83;1.40;;;;;;;;;;5030857;28;20172;-85
2023/11/20 00:58:42;;;;;;;4.13;1.43;;;;;;;;;;5030290;28;20212;-85
2023/11/20 01:01:47;;;;;;;5.97;1.60;;;;;;;;;;5030236;28;20251;-85
2023/11/20 01:04:52;;;;;;;6.13;1.30;;;;;;;;;;5041794;28;20184;-85
2023/11/20 01:07:56;;;;;;;4.53;1.57;;;;;;;;;;5042057;28;20180;-85
2023/11/20 01:11:01;;;;;;;6.00;1.70;;;;;;;;;;5041808;28;20215;-85
2023/11/20 01:14:06;;;;;;;5.23;1.40;;;;;;;;;;5030344;28;20180;-85
2023/11/20 01:17:10;;;;;;;6.10;1.77;;;;;;;;;;5041612;28;20640;-85
2023/11/20 01:20:14;;;;;;;5.83;1.53;;;;;;;;;;5030489;28;20168;-86
2023/11/20 01:23:18;;;;;;;3.10;1.23;;;;;;;;;;5030431;28;20180;-85
2023/11/20 01:26:23;;;;;;;4.00;1.17;;;;;;;;;;5018887;28;20184;-85
2023/11/20 01:29:27;;;;;;;3.57;1.37;;;;;;;;;;5019072;28;20176;-85
2023/11/20 01:32:31;;;;;;;8.50;1.63;;;;;;;;;;5018653;28;20216;-85
2023/11/20 01:35:35;;;;;;;4.07;1.40;;;;;;;;;;5030526;28;20518;-85
2023/11/20 01:38:39;;;;;;;2.67;1.30;;;;;;;;;;5030170;28;20208;-85
2023/11/20 01:41:44;;;;;;;2.60;1.03;;;;;;;;;;5029970;28;20223;-85
2023/11/20 01:44:48;;;;;;;4.33;1.50;;;;;;;;;;5033658;28;20180;-85
2023/11/20 01:47:52;;;;;;;1.53;1.00;;;;;;;;;;5045408;28;20184;-85
2023/11/20 01:50:57;;;;;;;3.80;1.10;;;;;;;;;;5022747;28;20216;-85
2023/11/20 01:54:04;;;;;;;2.17;0.90;;;;;;;;;;5034428;28;20188;-85
2023/11/20 01:57:10;;;;;;;2.90;0.73;;;;;;;;;;5022748;28;20176;-85
2023/11/20 02:00:16;;;;;;;1.70;0.97;;;;;;;;;;5045363;28;20172;-85
2023/11/20 02:03:20;;;;;;;2.10;1.13;;;;;;;;;;5033628;28;20184;-85
2023/11/20 02:06:25;;;;;;;3.20;1.20;;;;;;;;;;5033995;28;20184;-85
2023/11/20 02:09:29;;;;;;;1.60;0.83;;;;;;;;;;5033687;28;20176;-85
2023/11/20 02:12:34;;;;;;;4.90;1.40;;;;;;;;;;5033839;28;20215;-85
2023/11/20 02:15:38;;;;;;;5.00;1.13;;;;;;;;;;5022254;28;20176;-85
2023/11/20 02:18:43;;;;;;;3.63;1.03;;;;;;;;;;5033491;28;20212;-85
2023/11/20 02:21:47;;;;;;;4.43;1.00;;;;;;;;;;5045211;28;20576;-85
2023/11/20 02:24:51;;;;;;;3.17;1.07;;;;;;;;;;5044681;28;20184;-85
2023/11/20 02:28:07;;;;;;;6.13;1.10;;;;;;;;;;5033352;28;20180;-85
2023/11/20 02:31:11;;;;;;;3.40;1.30;;;;;;;;;;5033202;28;20557;-85
2023/11/20 02:34:16;;;;;;;6.10;1.20;;;;;;;;;;5033274;28;20629;-85
2023/11/20 02:37:20;;;;;;;3.27;1.57;;;;;;;;;;5044942;28;20176;-85
2023/11/20 02:40:25;;;;;;;6.60;1.50;;;;;;;;;;5044411;28;20633;-85
2023/11/20 02:43:29;;;;;;;4.37;1.27;;;;;;;;;;5057042;28;20176;-85
2023/11/20 02:46:33;;;;;;;6.60;1.50;;;;;;;;;;5021926;28;20180;-85
2023/11/20 02:49:37;;;;;;;3.87;1.30;;;;;;;;;;5056937;28;20188;-85
2023/11/20 02:52:41;;;;;;;3.23;1.47;;;;;;;;;;5032894;28;20180;-85
2023/11/20 02:55:46;;;;;;;4.50;1.10;;;;;;;;;;5031683;28;20189;-85
2023/11/20 02:58:50;;;;;;;4.90;1.63;;;;;;;;;;5032384;28;20553;-85
2023/11/20 03:01:55;;;;;;;4.93;1.53;;;;;;;;;;5032434;28;20695;-85
2023/11/20 03:04:59;;;;;;;4.80;1.20;;;;;;;;;;5032736;28;20188;-85
2023/11/20 03:08:04;;;;;;;6.00;1.20;;;;;;;;;;5021629;28;20180;-85
2023/11/20 03:11:08;;;;;;;6.80;1.57;;;;;;;;;;5032448;28;20257;-85
2023/11/20 03:14:13;;;;;;;7.40;1.50;;;;;;;;;;5043593;28;20180;-84
2023/11/20 03:17:17;;;;;;;5.87;1.50;;;;;;;;;;5032237;28;20184;-85
2023/11/20 03:20:21;;;;;;;6.10;1.70;;;;;;;;;;5032184;28;20212;-85
2023/11/20 03:23:26;;;;;;;3.83;1.10;;;;;;;;;;5032523;28;20188;-85
2023/11/20 03:26:30;;;;;;;3.23;1.10;;;;;;;;;;5043747;28;20180;-85
2023/11/20 03:29:36;;;;;;;3.73;1.10;;;;;;;;;;5043629;28;20180;-85
2023/11/20 03:32:39;;;;;;;7.10;1.37;;;;;;;;;;5032230;28;20176;-85
2023/11/20 03:35:44;;;;;;;3.83;1.30;;;;;;;;;;5043338;28;20180;-85
2023/11/20 03:38:48;;;;;;;7.70;1.57;;;;;;;;;;5043090;28;20669;-85
2023/11/20 03:41:52;;;;;;;6.63;1.50;;;;;;;;;;5043139;28;20223;-85
2023/11/20 03:44:56;;;;;;;5.70;1.33;;;;;;;;;;5043309;28;20188;-85
2023/11/20 03:48:00;;;;;;;5.70;1.23;;;;;;;;;;5043448;28;20176;-85
2023/11/20 03:51:04;;;;;;;7.63;2.00;;;;;;;;;;5043039;28;20212;-85
2023/11/20 03:54:09;;;;;;;3.67;1.13;;;;;;;;;;5042779;28;20188;-85
2023/11/20 03:57:12;;;;;;;3.80;1.10;;;;;;;;;;5031571;28;20176;-85
2023/11/20 04:00:17;;;;;;;4.67;1.30;;;;;;;;;;5031349;28;20204;-85
2023/11/20 04:03:21;;;;;;;2.70;1.00;;;;;;;;;;5020549;28;20182;-85
2023/11/20 04:06:25;;;;;;;3.10;1.30;;;;;;;;;;5042533;28;20188;-85
2023/11/20 04:09:29;;;;;;;4.40;1.20;;;;;;;;;;5042692;28;20631;-85
2023/11/20 04:12:33;;;;;;;4.03;1.07;;;;;;;;;;5031089;28;20220;-85
2023/11/20 04:15:37;;;;;;;4.33;1.30;;;;;;;;;;5031551;28;20187;-85
2023/11/20 04:18:44;;;;;;;4.33;1.27;;;;;;;;;;5042615;28;20208;-85
2023/11/20 04:21:48;;;;;;;6.90;1.33;;;;;;;;;;5030991;28;20216;-85
2023/11/20 04:24:53;;;;;;;6.93;1.43;;;;;;;;;;5042063;28;20176;-85
2023/11/20 04:27:57;;;;;;;3.77;1.10;;;;;;;;;;5054884;28;20184;-85
2023/11/20 04:31:02;;;;;;;2.77;0.90;;;;;;;;;;5042377;28;20211;-85
2023/11/20 04:34:06;;;;;;;6.20;1.10;;;;;;;;;;5031292;28;20180;-85
2023/11/20 04:37:10;;;;;;;4.43;1.13;;;;;;;;;;5031107;28;20629;-85
2023/11/20 04:40:14;;;;;;;4.43;1.00;;;;;;;;;;5030950;28;20212;-85
2023/11/20 04:43:18;;;;;;;4.00;1.20;;;;;;;;;;5042085;28;20184;-85
2023/11/20 04:46:22;;;;;;;3.10;1.43;;;;;;;;;;5054346;28;20518;-85
2023/11/20 04:49:26;;;;;;;3.63;1.20;;;;;;;;;;5054313;28;20180;-85
2023/11/20 04:52:30;;;;;;;4.23;1.10;;;;;;;;;;5041904;28;20211;-84
2023/11/20 04:55:35;;;;;;;4.27;1.10;;;;;;;;;;5054123;28;20184;-85
2023/11/20 04:58:39;;;;;;;3.53;1.27;;;;;;;;;;5041614;28;20176;-85
2023/11/20 05:01:43;;;;;;;2.97;1.20;;;;;;;;;;5030496;28;20223;-85
2023/11/20 05:04:47;;;;;;;4.07;1.30;;;;;;;;;;5042112;28;20184;-85
2023/11/20 05:07:52;;;;;;;3.47;1.10;;;;;;;;;;5054198;28;20183;-85
2023/11/20 05:10:56;;;;;;;3.90;1.13;;;;;;;;;;5030597;28;20212;-85
2023/11/20 05:14:00;;;;;;;6.57;1.03;;;;;;;;;;5041872;28;20180;-85
2023/11/20 05:17:04;;;;;;;2.97;0.90;;;;;;;;;;5041505;28;20180;-85
2023/11/20 05:20:10;;;;;;;4.27;1.20;;;;;;;;;;5030122;28;20211;-85
2023/11/20 05:23:15;;;;;;;1.87;0.90;;;;;;;;;;5053915;28;20173;-85
2023/11/20 05:26:19;;;;;;;3.27;1.07;;;;;;;;;;5053972;28;20641;-85
2023/11/20 05:29:23;;;;;;;3.63;1.00;;;;;;;;;;5030560;28;20176;-85
2023/11/20 05:32:27;;;;;;;2.03;0.90;;;;;;;;;;5041019;28;20223;-85
2023/11/20 05:35:33;;;;;;;3.33;1.00;;;;;;;;;;5030423;28;20184;-85
2023/11/20 05:38:37;;;;;;;2.93;1.00;;;;;;;;;;5030263;28;20572;-85
2023/11/20 05:41:41;;;;;;;6.00;1.10;;;;;;;;;;5018917;28;20211;-85
2023/11/20 05:44:46;;;;;;;2.97;1.13;;;;;;;;;;5041484;28;20184;-85
2023/11/20 05:47:50;;;;;;;2.43;1.00;;;;;;;;;;5053265;28;20625;-85
2023/11/20 05:50:54;;;;;;;2.57;1.13;;;;;;;;;;5041491;28;20216;-85
2023/11/20 05:53:58;;;;;;;3.23;1.30;;;;;;;;;;5053625;28;20188;-85
2023/11/20 05:57:02;;;;;;;1.70;1.00;;;;;;;;;;5030044;28;20184;-85
2023/11/20 06:00:10;;;;;;;5.90;1.17;;;;;;;;;;5041232;28;20224;-85
2023/11/20 06:03:15;;;;;;;4.23;1.00;;;;;;;;;;5053494;28;20177;-85
2023/11/20 06:06:23;;;;;;;3.73;1.00;;;;;;;;;;5041130;28;20184;-85
2023/11/20 06:09:27;;;;;;;1.50;0.83;;;;;;;;;;5018657;28;20561;-84
2023/11/20 06:12:31;;;;;;;4.33;0.93;;;;;;;;;;5041553;28;20216;-85
2023/11/20 06:15:36;;;;;;;4.93;1.10;;;;;;;;;;5029762;28;20180;-85
2023/11/20 06:18:40;;;;;;;5.27;1.27;;;;;;;;;;5029629;28;20184;-86
2023/11/20 06:21:49;;;;;;;4.57;1.00;;;;;;;;;;5052916;28;20215;-85
2023/11/20 06:24:53;;;;;;;2.83;1.23;;;;;;;;;;5053447;28;20172;-85
2023/11/20 06:27:57;;;;;;;3.63;0.90;;;;;;;;;;5041121;28;20180;-85
2023/11/20 06:31:01;;;;;;;4.67;1.13;;;;;;;;;;5056928;28;20213;-85
2023/11/20 06:34:05;;;;;;;1.80;1.00;;;;;;;;;;5033316;28;20184;-85
2023/11/20 06:37:09;;;;;;;5.40;1.33;;;;;;;;;;5033044;28;20188;-85
2023/11/20 06:40:14;;;;;;;6.13;1.20;;;;;;;;;;5032574;28;20208;-85
2023/11/20 06:43:18;;;;;;;5.83;1.30;;;;;;;;;;5056324;28;20184;-85
2023/11/20 06:46:25;;;;;;;7.97;1.27;;;;;;;;;;5032541;28;20186;-85
2023/11/20 06:49:28;;;;;;;5.20;1.20;;;;;;;;;;5021259;28;20184;-85
2023/11/20 06:52:33;;;;;;;4.67;1.50;;;;;;;;;;5032801;28;20696;-85
2023/11/20 06:55:37;;;;;;;6.77;1.40;;;;;;;;;;5043847;28;20176;-85
2023/11/20 06:58:41;;;;;;;5.43;1.30;;;;;;;;;;5043875;28;20180;-86
2023/11/20 07:01:46;;;;;;;5.17;1.30;;;;;;;;;;5021447;28;20699;-85
2023/11/20 07:04:50;;;;;;;3.77;1.20;;;;;;;;;;5043949;28;20548;-85
2023/11/20 07:07:55;;;;;;;5.80;1.23;;;;;;;;;;5056058;28;20180;-85
2023/11/20 07:10:59;;;;;;;4.30;1.20;;;;;;;;;;5043933;28;20212;-85
2023/11/20 07:14:04;;;;;;;4.33;1.23;;;;;;;;;;5043774;28;20184;-83
2023/11/20 07:17:07;;;;;;;7.40;1.00;;;;;;;;;;5044379;28;20180;-83
2023/11/20 07:20:12;;;;;;;6.00;1.10;;;;;;;;;;5033203;28;20208;-84
2023/11/20 07:23:16;;;;;;;4.97;1.40;;;;;;;;;;5033303;28;20536;-84
2023/11/20 07:26:20;;;;;;;5.13;1.30;;;;;;;;;;5057616;28;20610;-83
2023/11/20 07:29:24;;;;;;;3.83;1.10;;;;;;;;;;5057234;28;20184;-84
2023/11/20 07:32:29;;;;;;;12.17;5.73;;;;;;;;;;5056841;28;20224;-83
2023/11/20 07:35:33;;;;;;;3.37;1.60;;;;;;;;;;5043610;28;20518;-84
2023/11/20 07:38:38;;;;;;;3.80;1.40;;;;;;;;;;5055997;28;20184;-84
2023/11/20 07:41:43;;;;;;;4.80;2.33;;;;;;;;;;5054903;28;20227;-84
2023/11/20 07:44:47;;;;;;;4.07;1.63;;;;;;;;;;5055528;28;20625;-84
2023/11/20 07:47:51;;;;;;;4.33;1.60;;;;;;;;;;5055302;28;20188;-84
2023/11/20 07:50:55;;;;;;;7.80;1.40;;;;;;;;;;5055464;28;20208;-84
2023/11/20 07:53:59;;;;;;;9.10;1.57;;;;;;;;;;5031314;28;20188;-84
2023/11/20 07:57:04;;;;;;;15.70;11.33;;;;;;;;;;5045018;28;20176;-84
2023/11/20 08:00:11;;;;;;;5.30;2.50;;;;;;;;;;5046461;28;20223;-84
2023/11/20 08:03:18;;;;;;;6.27;2.00;;;;;;;;;;5044973;28;20172;-84
2023/11/20 08:06:22;;;;;;;7.60;1.97;;;;;;;;;;5031775;28;20188;-84
2023/11/20 08:09:26;;;;;;;6.27;1.53;;;;;;;;;;5032915;28;20184;-84
2023/11/20 08:12:31;;;;;;;8.17;1.20;;;;;;;;;;5043762;28;20211;-84
2023/11/20 08:15:35;;;;;;;8.30;2.10;;;;;;;;;;5032830;28;20180;-84
2023/11/20 08:18:39;;;;;;;5.30;1.73;;;;;;;;;;5044261;28;20184;-84
2023/11/20 08:21:43;;;;;;;2.27;0.90;;;;;;;;;;5044040;28;20232;-84
2023/11/20 08:24:47;;;;;;;12.57;1.57;;;;;;;;;;5033055;28;20502;-84
2023/11/20 08:27:51;;;;;;;6.73;1.40;;;;;;;;;;5044248;28;20180;-84
2023/11/20 08:30:56;;;;;;;5.13;1.60;;;;;;;;;;5043776;28;20211;-84
2023/11/20 08:33:59;;;;;;;13.27;6.20;;;;;;;;;;5021613;28;20184;-84
2023/11/20 08:37:04;;;;;;;5.57;2.03;;;;;;;;;;5044124;28;20188;-84
2023/11/20 08:40:08;;;;;;;8.03;4.03;;;;;;;;;;5032118;28;20204;-85
2023/11/20 08:43:13;;;;;;;18.93;8.40;;;;;;;;;;5032244;28;20180;-84
2023/11/20 08:46:17;;;;;;;32.23;18.17;;;;;;;;;;5032269;28;20180;-84
2023/11/20 08:49:21;;;;;;;8.03;1.87;;;;;;;;;;5042230;28;20191;-85
2023/11/20 08:52:25;;;;;;;5.10;2.00;;;;;;;;;;5041461;28;20212;-86
2023/11/20 08:55:29;;;;;;;5.57;1.77;;;;;;;;;;5054463;28;20522;-84
2023/11/20 08:58:34;;;;;;;4.60;1.20;;;;;;;;;;5042502;28;20176;-85
2023/11/20 09:06:50;;;;;;;3.97;1.10;;;;;;;;;;5089006;28;20188;-84
2023/11/20 10:35:18;;;;;;;5.67;1.30;;;;;;;;;;5076871;28;20168;-84
2023/11/20 15:01:21;;;;;;;2.93;1.23;;;;;;;;;;5120198;22;20240;-84
2023/11/20 15:04:25;;;;;;;6.73;1.57;;;;;;;;;;5025640;28;20204;-85
2023/11/20 15:07:29;;;;;;;6.13;1.50;;;;;;;;;;5026842;28;20185;-85
2023/11/20 15:10:33;;;;;;;3.27;1.30;;;;;;;;;;5027293;28;20181;-86
2023/11/20 15:13:37;;;;;;;3.33;1.40;;;;;;;;;;5039577;28;20213;-85
2023/11/20 15:16:41;;;;;;;3.60;0.97;;;;;;;;;;5038684;28;20181;-85
2023/11/20 15:19:45;;;;;;;6.73;1.93;;;;;;;;;;5039144;28;20185;-85
2023/11/20 15:22:50;;;;;;;20.30;9.00;;;;;;;;;;5027480;28;20233;-86
2023/11/20 15:25:58;;;;;;;20.23;10.10;;;;;;;;;;5039422;28;20181;-85
2023/11/20 15:29:02;;;;;;;27.77;13.93;;;;;;;;;;5040046;28;20633;-85
2023/11/20 15:32:06;;;;;;;30.93;16.30;;;;;;;;;;5017216;28;20212;-85
2023/11/20 15:35:11;;;;;;;37.23;20.00;;;;;;;;;;5017950;28;20181;-84
2023/11/20 15:38:16;;;;;;;31.87;18.37;;;;;;;;;;5017166;28;20189;-85
2023/11/20 15:41:20;;;;;;;33.50;20.27;;;;;;;;;;5029080;28;20177;-86
2023/11/20 15:44:24;;;;;;;39.13;24.47;;;;;;;;;;5027864;28;20185;-85
2023/11/20 15:47:28;;;;;;;24.90;14.23;;;;;;;;;;5027132;28;20499;-85
2023/11/20 15:50:33;;;;;;;16.73;8.33;;;;;;;;;;5038078;28;20181;-85
2023/11/20 15:53:37;;;;;;;18.73;9.67;;;;;;;;;;5015517;28;20216;-85
2023/11/20 15:56:41;;;;;;;24.30;13.07;;;;;;;;;;5037543;28;20176;-85
2023/11/20 15:59:46;;;;;;;27.97;14.50;;;;;;;;;;5038495;28;20622;-85
2023/11/20 16:02:52;;;;;;;22.23;14.63;;;;;;;;;;5025716;28;20232;-85
2023/11/20 16:05:56;;;;;;;24.90;14.63;;;;;;;;;;5039255;28;20189;-85
2023/11/20 16:09:00;;;;;;;16.60;10.43;;;;;;;;;;5037743;28;20189;-85
2023/11/20 16:12:05;;;;;;;17.57;8.67;;;;;;;;;;5038689;28;20212;-85
2023/11/20 16:15:10;;;;;;;11.17;5.40;;;;;;;;;;5004152;28;20177;-85
2023/11/20 16:18:14;;;;;;;7.00;2.53;;;;;;;;;;5037280;28;20189;-85
2023/11/20 16:21:21;;;;;;;4.63;1.80;;;;;;;;;;5040289;28;20181;-85
2023/11/20 16:24:25;;;;;;;3.93;1.50;;;;;;;;;;5037709;28;20646;-83
2023/11/20 16:27:30;;;;;;;3.53;1.33;;;;;;;;;;5038014;28;20184;-84
2023/11/20 16:30:34;;;;;;;3.97;1.30;;;;;;;;;;5038664;28;20185;-84
2023/11/20 16:33:39;;;;;;;5.73;1.70;;;;;;;;;;5026049;28;20584;-84
2023/11/20 16:36:43;;;;;;;8.53;1.93;;;;;;;;;;5026070;28;20189;-85
2023/11/20 16:39:47;;;;;;;6.30;2.03;;;;;;;;;;5013461;28;20185;-85
2023/11/20 16:53:15;;;;;;;5.30;2.73;;;;;;;;;;5108035;28;20206;-86
2023/11/20 16:56:19;;;;;;;7.30;3.43;;;;;;;;;;5104275;28;20182;-86
2023/11/20 16:59:23;;;;;;;6.33;2.67;;;;;;;;;;5103993;28;20179;-86
2023/11/20 17:02:27;;;;;;;10.07;2.20;;;;;;;;;;5103387;28;20225;-86
2023/11/20 17:05:32;;;;;;;12.17;2.97;;;;;;;;;;5102408;28;20173;-86
2023/11/20 17:08:36;;;;;;;13.67;4.07;;;;;;;;;;5102192;28;20185;-86
2023/11/20 17:11:41;;;;;;;10.30;4.00;;;;;;;;;;5114406;28;20217;-86
2023/11/20 17:14:45;;;;;;;10.30;4.03;;;;;;;;;;5078333;28;20178;-86
2023/11/20 17:17:49;;;;;;;11.03;3.33;;;;;;;;;;5102093;28;20174;-86
2023/11/20 17:20:53;;;;;;;5.30;2.73;;;;;;;;;;5102334;28;20177;-86
2023/11/20 17:23:57;;;;;;;6.47;2.70;;;;;;;;;;5090227;28;20206;-86
2023/11/20 17:27:01;;;;;;;7.57;2.57;;;;;;;;;;5102197;28;20182;-86
2023/11/20 17:30:06;;;;;;;7.27;2.93;;;;;;;;;;5090305;28;20177;-86
2023/11/20 17:33:12;;;;;;;11.13;3.50;;;;;;;;;;5101754;28;20206;-86
2023/11/20 17:36:15;;;;;;;5.77;4.10;;;;;;;;;;5101976;28;20182;-86
2023/11/20 17:39:20;;;;;;;6.20;2.97;;;;;;;;;;5090533;28;20178;-86
2023/11/20 17:42:24;;;;;;;7.90;2.57;;;;;;;;;;5101733;28;20221;-86
2023/11/20 17:45:28;;;;;;;5.57;1.97;;;;;;;;;;5114011;28;20174;-86
2023/11/20 17:48:32;;;;;;;8.57;1.80;;;;;;;;;;5101254;28;20626;-86
2023/11/20 17:51:37;;;;;;;4.80;1.90;;;;;;;;;;5090290;28;20221;-85
2023/11/20 17:54:41;;;;;;;5.80;2.10;;;;;;;;;;5101510;28;20175;-86
2023/11/20 17:57:45;;;;;;;4.27;1.87;;;;;;;;;;5078424;28;20182;-86
2023/11/20 18:00:49;;;;;;;4.10;1.97;;;;;;;;;;5101916;28;20174;-86
2023/11/20 18:03:53;;;;;;;9.30;1.87;;;;;;;;;;5090074;28;20206;-86
2023/11/20 18:06:57;;;;;;;3.40;1.60;;;;;;;;;;5101945;28;20182;-86
2023/11/20 18:10:05;;;;;;;5.90;1.80;;;;;;;;;;5090026;28;20174;-86
2023/11/20 18:13:09;;;;;;;6.47;1.80;;;;;;;;;;5113640;28;20551;-86
2023/11/20 18:16:13;;;;;;;3.30;1.70;;;;;;;;;;5113952;28;20178;-86
2023/11/20 18:19:17;;;;;;;3.53;1.80;;;;;;;;;;5090285;28;20182;-87
2023/11/20 18:31:15;;;;;;;7.47;2.37;;;;;;;;;;5117773;28;20171;-86
2023/11/20 18:39:28;;;;;;;5.97;2.30;;;;;;;;;;5087365;28;20194;-86
2023/11/20 18:43:30;;;;;;;9.03;2.80;;;;;;;;;;5084771;28;20223;-86
2023/11/20 18:52:35;;;;;;;8.77;2.93;;;;;;;;;;5100885;28;20690;-86
2023/11/20 18:56:07;;;;;;;6.00;2.30;;;;;;;;;;5084515;28;20175;-86
2023/11/20 19:05:00;;;;;;;4.93;2.80;;;;;;;;;;5054633;28;20224;-86
2023/11/20 19:08:09;;;;;;;6.80;2.67;;;;;;;;;;5083774;28;20194;-87
2023/11/20 19:11:13;;;;;;;9.27;3.03;;;;;;;;;;5084222;28;20179;-86
2023/11/20 19:14:17;;;;;;;6.07;1.80;;;;;;;;;;5072079;28;20179;-86
2023/11/20 19:17:21;;;;;;;7.37;2.00;;;;;;;;;;5084303;28;20179;-86
2023/11/20 19:20:29;;;;;;;6.03;2.20;;;;;;;;;;5084023;28;20179;-86
2023/11/20 19:23:35;;;;;;;6.30;2.27;;;;;;;;;;5095563;28;20222;-87
2023/11/20 19:26:39;;;;;;;6.07;1.93;;;;;;;;;;5072524;28;20175;-86
2023/11/20 19:29:44;;;;;;;8.10;2.23;;;;;;;;;;5084271;28;20525;-86
2023/11/20 19:32:48;;;;;;;9.63;2.33;;;;;;;;;;5083382;28;20210;-86
2023/11/20 19:35:53;;;;;;;5.10;2.00;;;;;;;;;;5095857;28;20178;-86
2023/11/20 19:38:57;;;;;;;7.60;2.50;;;;;;;;;;5083524;28;20623;-86
2023/11/20 19:42:01;;;;;;;6.40;2.07;;;;;;;;;;5095756;28;20214;-87
2023/11/20 19:45:06;;;;;;;5.90;2.20;;;;;;;;;;5072078;28;20631;-87
2023/11/20 19:48:13;;;;;;;6.40;2.27;;;;;;;;;;5071863;28;20182;-86
2023/11/20 19:51:17;;;;;;;4.70;1.70;;;;;;;;;;5083509;28;20627;-86
2023/11/20 19:54:21;;;;;;;11.07;2.57;;;;;;;;;;5083247;28;20187;-86
2023/11/20 19:57:25;;;;;;;7.73;2.40;;;;;;;;;;5082960;28;20178;-86
2023/11/20 20:00:32;;;;;;;7.43;3.60;;;;;;;;;;5083051;28;20535;-86
2023/11/20 20:03:36;;;;;;;10.13;3.90;;;;;;;;;;5071170;28;20705;-86
2023/11/20 20:06:39;;;;;;;5.90;2.87;;;;;;;;;;5071540;28;20187;-86
2023/11/20 20:09:44;;;;;;;6.70;2.70;;;;;;;;;;5083237;28;20183;-86
2023/11/20 20:12:48;;;;;;;4.00;2.17;;;;;;;;;;5095659;28;20222;-86
2023/11/20 20:15:53;;;;;;;5.73;2.50;;;;;;;;;;5095401;28;20179;-86
2023/11/20 20:19:00;;;;;;;7.13;2.17;;;;;;;;;;5082876;28;20183;-86
2023/11/20 20:22:05;;;;;;;11.50;2.40;;;;;;;;;;5082792;28;20214;-86
2023/11/20 20:25:09;;;;;;;11.03;2.80;;;;;;;;;;5082374;28;20682;-86
2023/11/20 20:28:13;;;;;;;5.83;2.00;;;;;;;;;;5082931;28;20485;-87
2023/11/20 20:31:18;;;;;;;9.87;2.47;;;;;;;;;;5071296;28;20178;-86
2023/11/20 20:34:23;;;;;;;5.60;2.13;;;;;;;;;;5082520;28;20533;-86
2023/11/20 20:37:27;;;;;;;7.33;2.27;;;;;;;;;;5094607;28;20178;-86
2023/11/20 20:40:32;;;;;;;8.00;2.27;;;;;;;;;;5095104;28;20508;-87
2023/11/20 20:43:37;;;;;;;9.43;2.70;;;;;;;;;;5094254;28;20226;-86
2023/11/20 20:46:41;;;;;;;7.40;2.13;;;;;;;;;;5082597;28;20175;-86
2023/11/20 20:49:46;;;;;;;5.70;2.40;;;;;;;;;;5082384;28;20175;-86
2023/11/20 20:52:51;;;;;;;8.37;2.50;;;;;;;;;;5070918;28;20218;-86
2023/11/20 20:55:54;;;;;;;6.53;2.40;;;;;;;;;;5070601;28;20178;-86
2023/11/20 20:58:59;;;;;;;11.77;2.87;;;;;;;;;;5082617;28;20182;-86
2023/11/20 21:02:03;;;;;;;7.97;2.80;;;;;;;;;;5081756;28;20210;-87
2023/11/20 21:05:07;;;;;;;7.33;2.47;;;;;;;;;;5082662;28;20203;-86
2023/11/20 21:08:12;;;;;;;9.90;2.60;;;;;;;;;;5094575;28;20183;-86
2023/11/20 21:11:15;;;;;;;8.83;2.20;;;;;;;;;;5081865;28;20179;-86
2023/11/20 21:14:19;;;;;;;11.97;4.77;;;;;;;;;;5070640;28;20516;-87
2023/11/20 21:17:24;;;;;;;16.60;7.03;;;;;;;;;;5071126;28;20183;-87
2023/11/20 21:20:28;;;;;;;12.43;5.53;;;;;;;;;;5070814;28;20179;-86
2023/11/20 21:23:32;;;;;;;10.37;3.83;;;;;;;;;;5081315;28;20226;-87
2023/11/20 21:26:36;;;;;;;11.03;3.03;;;;;;;;;;5070583;28;20183;-87
2023/11/20 21:29:41;;;;;;;9.53;3.10;;;;;;;;;;5070840;28;20627;-86
2023/11/20 21:32:45;;;;;;;6.07;3.40;;;;;;;;;;5094271;28;20610;-86
2023/11/20 21:35:49;;;;;;;9.13;3.33;;;;;;;;;;5082383;28;20171;-86
2023/11/20 21:38:54;;;;;;;6.40;2.50;;;;;;;;;;5094835;28;20175;-86
2023/11/20 21:41:59;;;;;;;6.70;2.83;;;;;;;;;;5070417;28;20686;-86
2023/11/20 21:45:03;;;;;;;10.53;3.13;;;;;;;;;;5094664;28;20211;-86
2023/11/20 21:48:10;;;;;;;9.00;3.90;;;;;;;;;;5094685;28;20187;-86
2023/11/20 21:51:14;;;;;;;9.57;3.20;;;;;;;;;;5094575;28;20179;-86
2023/11/20 21:54:18;;;;;;;7.97;2.50;;;;;;;;;;5082838;28;20170;-85
2023/11/20 21:57:22;;;;;;;9.13;2.50;;;;;;;;;;5083954;28;20543;-86
2023/11/20 22:00:26;;;;;;;8.20;2.97;;;;;;;;;;5097372;28;20182;-86
2023/11/20 22:03:30;;;;;;;8.03;2.90;;;;;;;;;;5075284;28;20682;-86
2023/11/20 22:06:37;;;;;;;9.73;2.87;;;;;;;;;;5085830;28;20174;-86
2023/11/20 22:09:41;;;;;;;8.70;3.63;;;;;;;;;;5086048;28;20179;-86
2023/11/20 22:12:46;;;;;;;7.73;3.47;;;;;;;;;;5099464;28;20570;-86
2023/11/20 22:15:50;;;;;;;10.17;3.63;;;;;;;;;;5099428;28;20171;-86
2023/11/20 22:18:54;;;;;;;7.23;2.87;;;;;;;;;;5087544;28;20647;-86
2023/11/20 22:21:59;;;;;;;6.37;2.43;;;;;;;;;;5101815;28;20589;-85
2023/11/20 22:25:04;;;;;;;6.67;2.33;;;;;;;;;;5086752;28;20218;-86
2023/11/20 22:28:08;;;;;;;8.03;3.10;;;;;;;;;;5086319;28;20183;-85
2023/11/20 22:31:13;;;;;;;6.80;2.73;;;;;;;;;;5099387;28;20174;-85
2023/11/20 22:34:18;;;;;;;6.37;2.47;;;;;;;;;;5086734;28;20179;-86
2023/11/20 22:37:22;;;;;;;8.17;2.90;;;;;;;;;;5099100;28;20614;-86
2023/11/20 22:40:26;;;;;;;7.03;2.13;;;;;;;;;;5075404;28;20186;-86
2023/11/20 22:43:30;;;;;;;8.63;2.37;;;;;;;;;;5086491;28;20215;-86
2023/11/20 22:46:36;;;;;;;9.83;2.47;;;;;;;;;;5075673;28;20182;-86
2023/11/20 22:49:39;;;;;;;8.03;2.20;;;;;;;;;;5074325;28;20179;-86
2023/11/20 22:52:44;;;;;;;6.00;2.10;;;;;;;;;;5086281;28;20686;-86
2023/11/20 22:55:49;;;;;;;7.17;2.03;;;;;;;;;;5074065;28;20179;-86
2023/11/20 22:58:54;;;;;;;10.07;2.07;;;;;;;;;;5096932;28;20183;-85
2023/11/20 23:01:58;;;;;;;6.43;2.10;;;;;;;;;;5098058;28;20210;-86
2023/11/20 23:05:02;;;;;;;6.50;2.03;;;;;;;;;;5074469;28;20202;-86
2023/11/20 23:08:06;;;;;;;8.97;2.67;;;;;;;;;;5085897;28;20175;-86
2023/11/20 23:11:15;;;;;;;9.83;2.27;;;;;;;;;;5097590;28;20190;-86
2023/11/20 23:14:19;;;;;;;10.60;3.13;;;;;;;;;;5074185;28;20175;-85
2023/11/20 23:17:24;;;;;;;9.00;2.17;;;;;;;;;;5098130;28;20179;-86
2023/11/20 23:20:28;;;;;;;8.83;2.63;;;;;;;;;;5085462;28;20635;-85
2023/11/20 23:23:32;;;;;;;9.63;2.30;;;;;;;;;;5073317;28;20698;-86
2023/11/20 23:26:37;;;;;;;6.77;2.37;;;;;;;;;;5098455;28;20179;-86
2023/11/20 23:29:41;;;;;;;10.93;2.40;;;;;;;;;;5085498;28;20183;-86
2023/11/20 23:32:47;;;;;;;7.93;2.70;;;;;;;;;;5085561;28;20214;-86
2023/11/20 23:35:52;;;;;;;8.47;2.37;;;;;;;;;;5085351;28;20179;-86
2023/11/20 23:38:56;;;;;;;9.93;2.53;;;;;;;;;;5097150;28;20179;-86
2023/11/20 23:42:00;;;;;;;11.13;2.63;;;;;;;;;;5073175;28;20218;-86
2023/11/20 23:45:06;;;;;;;6.90;2.17;;;;;;;;;;5097101;28;20202;-86
2023/11/20 23:48:09;;;;;;;6.77;2.30;;;;;;;;;;5073342;28;20178;-86
2023/11/20 23:51:14;;;;;;;9.03;1.80;;;;;;;;;;5084488;28;20183;-86
2023/11/20 23:54:18;;;;;;;6.60;2.07;;;;;;;;;;5084942;28;20183;-86
2023/11/20 23:57:22;;;;;;;7.50;1.93;;;;;;;;;;5084445;28;20528;-86
